sensor_id;sensor_type;location;lat;lon;timestamp;pressure;altitude;pressure_sealevel;temperature;humidity
33859;BME280;20156;47.486;12.074;2023-04-05T00:00:53;96139.56;;;-1.31;100.00
33859;BME280;20156;47.486;12.074;2023-04-05T00:03:19;96148.72;;;-1.28;100.00
33859;BME280;20156;47.486;12.074;2023-04-05T00:05:44;96149.75;;;-1.31;100.00
33859;BME280;20156;47.486;12.074;2023-04-05T00:08:10;96138.28;;;-1.25;100.00
33859;BME280;20156;47.486;12.074;2023-04-05T00:10:47;96140.38;;;-1.30;100.00
33859;BME280;20156;47.486;12.074;2023-04-05T00:13:12;96141.03;;;-1.15;100.00
33859;BME280;20156;47.486;12.074;2023-04-05T00:15:38;96143.78;;;-1.18;100.00
33859;BME280;20156;47.486;12.074;2023-04-05T00:18:03;96137.56;;;-1.14;100.00
33859;BME280;20156;47.486;12.074;2023-04-05T00:20:29;96136.94;;;-1.18;100.00
33859;BME280;20156;47.486;12.074;2023-04-05T00:22:54;96142.69;;;-1.27;100.00
33859;BME280;20156;47.486;12.074;2023-04-05T00:25:19;96131.59;;;-1.39;100.00
33859;BME280;20156;47.486;12.074;2023-04-05T00:27:46;96133.88;;;-1.47;100.00
33859;BME280;20156;47.486;12.074;2023-04-05T00:30:11;96127.88;;;-1.59;100.00
33859;BME280;20156;47.486;12.074;2023-04-05T00:32:37;96132.72;;;-1.67;100.00
33859;BME280;20156;47.486;12.074;2023-04-05T00:35:03;96126.53;;;-1.52;100.00
33859;BME280;20156;47.486;12.074;2023-04-05T00:37:28;96125.56;;;-1.38;100.00
33859;BME280;20156;47.486;12.074;2023-04-05T00:39:54;96117.00;;;-1.37;100.00
33859;BME280;20156;47.486;12.074;2023-04-05T00:42:22;96118.47;;;-1.45;100.00
33859;BME280;20156;47.486;12.074;2023-04-05T00:44:47;96120.47;;;-1.62;100.00
33859;BME280;20156;47.486;12.074;2023-04-05T00:47:13;96111.78;;;-1.59;100.00
33859;BME280;20156;47.486;12.074;2023-04-05T00:49:39;96101.78;;;-1.62;100.00
33859;BME280;20156;47.486;12.074;2023-04-05T00:52:04;96092.72;;;-1.66;100.00
33859;BME280;20156;47.486;12.074;2023-04-05T00:54:31;96091.34;;;-1.83;100.00
33859;BME280;20156;47.486;12.074;2023-04-05T00:56:58;96089.19;;;-1.76;100.00
33859;BME280;20156;47.486;12.074;2023-04-05T00:59:27;96080.81;;;-1.78;100.00
33859;BME280;20156;47.486;12.074;2023-04-05T01:02:00;96077.25;;;-1.76;100.00
33859;BME280;20156;47.486;12.074;2023-04-05T01:04:29;96075.41;;;-1.87;100.00
33859;BME280;20156;47.486;12.074;2023-04-05T01:07:08;96069.31;;;-1.84;100.00
33859;BME280;20156;47.486;12.074;2023-04-05T01:09:58;96063.94;;;-1.92;100.00
33859;BME280;20156;47.486;12.074;2023-04-05T01:12:29;96066.78;;;-1.84;100.00
33859;BME280;20156;47.486;12.074;2023-04-05T01:14:58;96059.47;;;-1.65;100.00
33859;BME280;20156;47.486;12.074;2023-04-05T01:17:25;96062.44;;;-1.71;100.00
33859;BME280;20156;47.486;12.074;2023-04-05T01:19:59;96054.91;;;-1.72;100.00
33859;BME280;20156;47.486;12.074;2023-04-05T01:22:52;96050.38;;;-1.69;100.00
33859;BME280;20156;47.486;12.074;2023-04-05T01:25:44;96045.72;;;-1.75;100.00
33859;BME280;20156;47.486;12.074;2023-04-05T01:28:39;96043.03;;;-1.85;100.00
33859;BME280;20156;47.486;12.074;2023-04-05T01:31:31;96032.59;;;-1.82;100.00
33859;BME280;20156;47.486;12.074;2023-04-05T01:36:43;96023.09;;;-1.56;100.00
33859;BME280;20156;47.486;12.074;2023-04-05T01:39:13;96025.19;;;-1.61;100.00
33859;BME280;20156;47.486;12.074;2023-04-05T01:41:39;96026.44;;;-1.66;100.00
33859;BME280;20156;47.486;12.074;2023-04-05T01:44:05;96035.63;;;-1.76;100.00
33859;BME280;20156;47.486;12.074;2023-04-05T01:46:31;96032.63;;;-1.94;100.00
33859;BME280;20156;47.486;12.074;2023-04-05T01:48:56;96028.72;;;-1.87;100.00
33859;BME280;20156;47.486;12.074;2023-04-05T01:51:22;96015.78;;;-1.84;100.00
33859;BME280;20156;47.486;12.074;2023-04-05T01:53:47;96018.06;;;-1.68;100.00
33859;BME280;20156;47.486;12.074;2023-04-05T01:56:12;96027.38;;;-1.67;100.00
33859;BME280;20156;47.486;12.074;2023-04-05T01:58:38;96032.75;;;-1.96;100.00
33859;BME280;20156;47.486;12.074;2023-04-05T02:01:03;96022.22;;;-1.91;100.00
33859;BME280;20156;47.486;12.074;2023-04-05T02:03:29;96020.91;;;-1.84;100.00
33859;BME280;20156;47.486;12.074;2023-04-05T02:05:55;96025.00;;;-1.70;100.00
33859;BME280;20156;47.486;12.074;2023-04-05T02:08:21;96031.78;;;-1.82;100.00
33859;BME280;20156;47.486;12.074;2023-04-05T02:10:46;96031.63;;;-2.04;100.00
33859;BME280;20156;47.486;12.074;2023-04-05T02:13:11;96029.38;;;-1.96;100.00
33859;BME280;20156;47.486;12.074;2023-04-05T02:15:38;96016.19;;;-1.90;100.00
33859;BME280;20156;47.486;12.074;2023-04-05T02:18:03;96021.16;;;-2.00;100.00
33859;BME280;20156;47.486;12.074;2023-04-05T02:20:29;96015.59;;;-1.94;100.00
33859;BME280;20156;47.486;12.074;2023-04-05T02:22:55;96012.63;;;-1.88;100.00
33859;BME280;20156;47.486;12.074;2023-04-05T02:25:21;96002.13;;;-1.83;100.00
33859;BME280;20156;47.486;12.074;2023-04-05T02:27:46;96004.41;;;-2.04;100.00
33859;BME280;20156;47.486;12.074;2023-04-05T02:30:12;96009.75;;;-2.20;100.00
33859;BME280;20156;47.486;12.074;2023-04-05T02:32:39;96005.75;;;-2.48;100.00
33859;BME280;20156;47.486;12.074;2023-04-05T02:35:08;95993.00;;;-2.48;100.00
33859;BME280;20156;47.486;12.074;2023-04-05T02:37:34;95987.38;;;-2.40;100.00
33859;BME280;20156;47.486;12.074;2023-04-05T02:39:59;95974.41;;;-2.24;100.00
33859;BME280;20156;47.486;12.074;2023-04-05T02:42:25;95967.81;;;-2.27;100.00
33859;BME280;20156;47.486;12.074;2023-04-05T02:44:51;95965.38;;;-2.41;100.00
33859;BME280;20156;47.486;12.074;2023-04-05T02:47:17;95947.75;;;-2.31;100.00
33859;BME280;20156;47.486;12.074;2023-04-05T02:49:46;95941.88;;;-2.21;100.00
33859;BME280;20156;47.486;12.074;2023-04-05T02:52:12;95946.28;;;-2.23;100.00
33859;BME280;20156;47.486;12.074;2023-04-05T02:54:37;95935.81;;;-2.31;100.00
33859;BME280;20156;47.486;12.074;2023-04-05T02:57:03;95934.31;;;-2.33;100.00
33859;BME280;20156;47.486;12.074;2023-04-05T02:59:28;95940.72;;;-2.40;100.00
33859;BME280;20156;47.486;12.074;2023-04-05T03:01:54;95945.00;;;-2.41;100.00
33859;BME280;20156;47.486;12.074;2023-04-05T03:04:19;95936.75;;;-2.32;100.00
33859;BME280;20156;47.486;12.074;2023-04-05T03:06:44;95929.00;;;-2.30;100.00
33859;BME280;20156;47.486;12.074;2023-04-05T03:09:13;95920.84;;;-2.35;100.00
33859;BME280;20156;47.486;12.074;2023-04-05T03:11:39;95907.63;;;-2.40;100.00
33859;BME280;20156;47.486;12.074;2023-04-05T03:14:04;95910.81;;;-2.50;100.00
33859;BME280;20156;47.486;12.074;2023-04-05T03:16:30;95903.34;;;-2.40;100.00
33859;BME280;20156;47.486;12.074;2023-04-05T03:18:55;95898.84;;;-2.36;100.00
33859;BME280;20156;47.486;12.074;2023-04-05T03:21:21;95900.66;;;-2.26;100.00
33859;BME280;20156;47.486;12.074;2023-04-05T03:23:46;95896.47;;;-2.27;100.00
33859;BME280;20156;47.486;12.074;2023-04-05T03:26:12;95893.13;;;-2.27;100.00
33859;BME280;20156;47.486;12.074;2023-04-05T03:28:38;95892.53;;;-2.31;100.00
33859;BME280;20156;47.486;12.074;2023-04-05T03:31:12;95893.38;;;-2.43;100.00
33859;BME280;20156;47.486;12.074;2023-04-05T03:33:38;95902.66;;;-2.55;100.00
33859;BME280;20156;47.486;12.074;2023-04-05T03:36:04;95899.09;;;-2.52;100.00
33859;BME280;20156;47.486;12.074;2023-04-05T03:38:29;95891.63;;;-2.66;100.00
33859;BME280;20156;47.486;12.074;2023-04-05T03:40:56;95885.09;;;-2.70;100.00
33859;BME280;20156;47.486;12.074;2023-04-05T03:43:22;95882.88;;;-2.88;100.00
33859;BME280;20156;47.486;12.074;2023-04-05T03:45:47;95880.03;;;-2.83;100.00
33859;BME280;20156;47.486;12.074;2023-04-05T03:48:13;95886.31;;;-2.63;100.00
33859;BME280;20156;47.486;12.074;2023-04-05T03:50:38;95876.72;;;-2.60;100.00
33859;BME280;20156;47.486;12.074;2023-04-05T03:53:03;95887.63;;;-2.70;100.00
33859;BME280;20156;47.486;12.074;2023-04-05T03:55:30;95880.16;;;-2.85;100.00
33859;BME280;20156;47.486;12.074;2023-04-05T03:57:55;95869.97;;;-2.85;100.00
33859;BME280;20156;47.486;12.074;2023-04-05T04:00:21;95860.28;;;-2.80;100.00
33859;BME280;20156;47.486;12.074;2023-04-05T04:02:48;95862.94;;;-2.81;100.00
33859;BME280;20156;47.486;12.074;2023-04-05T04:05:15;95853.31;;;-2.65;100.00
33859;BME280;20156;47.486;12.074;2023-04-05T04:07:42;95852.66;;;-2.56;100.00
33859;BME280;20156;47.486;12.074;2023-04-05T04:10:09;95860.06;;;-2.77;100.00
33859;BME280;20156;47.486;12.074;2023-04-05T04:12:36;95867.50;;;-2.86;100.00
33859;BME280;20156;47.486;12.074;2023-04-05T04:15:02;95862.41;;;-2.86;100.00
33859;BME280;20156;47.486;12.074;2023-04-05T04:17:28;95851.19;;;-2.71;100.00
33859;BME280;20156;47.486;12.074;2023-04-05T04:19:55;95850.06;;;-2.67;100.00
33859;BME280;20156;47.486;12.074;2023-04-05T04:22:21;95862.00;;;-2.67;100.00
33859;BME280;20156;47.486;12.074;2023-04-05T04:24:47;95861.09;;;-2.79;100.00
33859;BME280;20156;47.486;12.074;2023-04-05T04:27:15;95863.78;;;-2.93;100.00
33859;BME280;20156;47.486;12.074;2023-04-05T04:29:41;95857.75;;;-2.92;100.00
33859;BME280;20156;47.486;12.074;2023-04-05T04:32:12;95844.81;;;-2.89;100.00
33859;BME280;20156;47.486;12.074;2023-04-05T04:34:39;95834.00;;;-2.67;100.00
33859;BME280;20156;47.486;12.074;2023-04-05T04:37:15;95826.00;;;-2.50;100.00
33859;BME280;20156;47.486;12.074;2023-04-05T04:39:47;95835.44;;;-2.52;100.00
33859;BME280;20156;47.486;12.074;2023-04-05T04:42:14;95855.09;;;-2.78;100.00
33859;BME280;20156;47.486;12.074;2023-04-05T04:44:47;95860.34;;;-3.18;100.00
33859;BME280;20156;47.486;12.074;2023-04-05T04:47:13;95855.66;;;-3.24;100.00
33859;BME280;20156;47.486;12.074;2023-04-05T04:49:41;95844.28;;;-3.18;100.00
33859;BME280;20156;47.486;12.074;2023-04-05T04:52:07;95833.44;;;-2.96;100.00
33859;BME280;20156;47.486;12.074;2023-04-05T04:54:34;95839.34;;;-2.83;100.00
33859;BME280;20156;47.486;12.074;2023-04-05T04:57:00;95833.69;;;-2.76;100.00
33859;BME280;20156;47.486;12.074;2023-04-05T04:59:27;95835.41;;;-2.63;100.00
33859;BME280;20156;47.486;12.074;2023-04-05T05:01:52;95825.47;;;-2.55;100.00
33859;BME280;20156;47.486;12.074;2023-04-05T05:04:18;95832.31;;;-2.56;100.00
33859;BME280;20156;47.486;12.074;2023-04-05T05:06:43;95844.09;;;-2.79;100.00
33859;BME280;20156;47.486;12.074;2023-04-05T05:09:09;95844.72;;;-2.88;100.00
33859;BME280;20156;47.486;12.074;2023-04-05T05:11:34;95845.81;;;-2.79;100.00
33859;BME280;20156;47.486;12.074;2023-04-05T05:14:00;95846.75;;;-2.80;100.00
33859;BME280;20156;47.486;12.074;2023-04-05T05:16:25;95836.78;;;-2.83;100.00
33859;BME280;20156;47.486;12.074;2023-04-05T05:18:52;95830.72;;;-2.69;100.00
33859;BME280;20156;47.486;12.074;2023-04-05T05:21:18;95821.19;;;-2.55;100.00
33859;BME280;20156;47.486;12.074;2023-04-05T05:23:43;95824.06;;;-2.35;100.00
33859;BME280;20156;47.486;12.074;2023-04-05T05:26:09;95839.78;;;-2.42;100.00
33859;BME280;20156;47.486;12.074;2023-04-05T05:28:34;95850.84;;;-2.30;100.00
33859;BME280;20156;47.486;12.074;2023-04-05T05:30:59;95850.19;;;-2.21;100.00
33859;BME280;20156;47.486;12.074;2023-04-05T05:33:25;95860.00;;;-2.27;100.00
33859;BME280;20156;47.486;12.074;2023-04-05T05:35:50;95859.66;;;-2.23;100.00
33859;BME280;20156;47.486;12.074;2023-04-05T05:38:17;95868.00;;;-2.21;100.00
33859;BME280;20156;47.486;12.074;2023-04-05T05:40:42;95857.00;;;-2.21;100.00
33859;BME280;20156;47.486;12.074;2023-04-05T05:43:08;95854.84;;;-2.15;100.00
33859;BME280;20156;47.486;12.074;2023-04-05T05:45:35;95846.75;;;-2.08;100.00
33859;BME280;20156;47.486;12.074;2023-04-05T05:48:00;95847.50;;;-1.95;100.00
33859;BME280;20156;47.486;12.074;2023-04-05T05:50:26;95856.31;;;-1.88;100.00
33859;BME280;20156;47.486;12.074;2023-04-05T05:52:51;95855.78;;;-1.80;100.00
33859;BME280;20156;47.486;12.074;2023-04-05T05:55:17;95856.03;;;-1.72;100.00
33859;BME280;20156;47.486;12.074;2023-04-05T05:57:42;95855.59;;;-1.55;100.00
33859;BME280;20156;47.486;12.074;2023-04-05T06:00:08;95862.47;;;-1.44;100.00
33859;BME280;20156;47.486;12.074;2023-04-05T06:02:34;95850.88;;;-1.37;100.00
33859;BME280;20156;47.486;12.074;2023-04-05T06:05:00;95853.09;;;-1.33;100.00
33859;BME280;20156;47.486;12.074;2023-04-05T06:07:26;95847.88;;;-1.31;100.00
33859;BME280;20156;47.486;12.074;2023-04-05T06:09:52;95844.19;;;-1.27;100.00
33859;BME280;20156;47.486;12.074;2023-04-05T06:12:20;95846.13;;;-1.19;100.00
33859;BME280;20156;47.486;12.074;2023-04-05T06:14:45;95856.81;;;-1.26;100.00
33859;BME280;20156;47.486;12.074;2023-04-05T06:17:11;95861.25;;;-1.16;100.00
33859;BME280;20156;47.486;12.074;2023-04-05T06:19:36;95863.09;;;-1.07;100.00
33859;BME280;20156;47.486;12.074;2023-04-05T06:22:02;95866.09;;;-0.80;100.00
33859;BME280;20156;47.486;12.074;2023-04-05T06:24:27;95868.75;;;-0.70;100.00
33859;BME280;20156;47.486;12.074;2023-04-05T06:26:56;95864.44;;;-0.58;100.00
33859;BME280;20156;47.486;12.074;2023-04-05T06:29:22;95874.66;;;-0.47;100.00
33859;BME280;20156;47.486;12.074;2023-04-05T06:31:47;95875.91;;;-0.42;100.00
33859;BME280;20156;47.486;12.074;2023-04-05T06:34:13;95880.22;;;-0.42;100.00
33859;BME280;20156;47.486;12.074;2023-04-05T06:36:38;95894.41;;;-0.49;100.00
33859;BME280;20156;47.486;12.074;2023-04-05T06:39:04;95897.19;;;-0.52;100.00
33859;BME280;20156;47.486;12.074;2023-04-05T06:41:29;95909.47;;;-0.35;100.00
33859;BME280;20156;47.486;12.074;2023-04-05T06:43:55;95913.41;;;-0.31;100.00
33859;BME280;20156;47.486;12.074;2023-04-05T06:46:21;95906.31;;;-0.16;100.00
33859;BME280;20156;47.486;12.074;2023-04-05T06:48:46;95909.63;;;0.27;100.00
33859;BME280;20156;47.486;12.074;2023-04-05T06:51:13;95912.72;;;0.42;100.00
33859;BME280;20156;47.486;12.074;2023-04-05T06:53:38;95929.78;;;0.53;100.00
33859;BME280;20156;47.486;12.074;2023-04-05T06:56:04;95938.69;;;0.58;100.00
33859;BME280;20156;47.486;12.074;2023-04-05T06:58:29;95948.56;;;0.63;100.00
33859;BME280;20156;47.486;12.074;2023-04-05T07:00:55;95952.72;;;0.64;100.00
33859;BME280;20156;47.486;12.074;2023-04-05T07:03:20;95968.69;;;0.88;100.00
33859;BME280;20156;47.486;12.074;2023-04-05T07:05:54;95969.00;;;0.95;100.00
33859;BME280;20156;47.486;12.074;2023-04-05T07:08:21;95972.84;;;1.10;100.00
33859;BME280;20156;47.486;12.074;2023-04-05T07:10:47;95981.03;;;1.25;100.00
33859;BME280;20156;47.486;12.074;2023-04-05T07:13:13;95993.47;;;1.09;100.00
33859;BME280;20156;47.486;12.074;2023-04-05T07:15:38;95983.78;;;0.92;100.00
33859;BME280;20156;47.486;12.074;2023-04-05T07:18:04;95989.03;;;0.90;100.00
33859;BME280;20156;47.486;12.074;2023-04-05T07:20:30;95993.06;;;1.34;100.00
33859;BME280;20156;47.486;12.074;2023-04-05T07:22:55;95991.47;;;1.64;100.00
33859;BME280;20156;47.486;12.074;2023-04-05T07:25:22;95995.56;;;1.76;100.00
33859;BME280;20156;47.486;12.074;2023-04-05T07:27:48;95989.69;;;1.95;100.00
33859;BME280;20156;47.486;12.074;2023-04-05T07:30:14;95973.34;;;1.96;100.00
33859;BME280;20156;47.486;12.074;2023-04-05T07:32:39;95954.91;;;2.21;100.00
33859;BME280;20156;47.486;12.074;2023-04-05T07:35:05;95938.84;;;2.19;100.00
33859;BME280;20156;47.486;12.074;2023-04-05T07:37:31;95914.00;;;2.39;100.00
33859;BME280;20156;47.486;12.074;2023-04-05T07:39:56;95893.31;;;2.40;100.00
33859;BME280;20156;47.486;12.074;2023-04-05T07:42:22;95883.59;;;2.54;100.00
33859;BME280;20156;47.486;12.074;2023-04-05T07:44:48;95868.69;;;2.67;100.00
33859;BME280;20156;47.486;12.074;2023-04-05T07:47:13;95851.22;;;2.80;100.00
33859;BME280;20156;47.486;12.074;2023-04-05T07:49:38;95834.13;;;2.98;100.00
33859;BME280;20156;47.486;12.074;2023-04-05T07:52:04;95839.53;;;3.32;100.00
33859;BME280;20156;47.486;12.074;2023-04-05T07:54:31;95813.78;;;3.42;100.00
33859;BME280;20156;47.486;12.074;2023-04-05T07:56:58;95817.50;;;3.57;100.00
33859;BME280;20156;47.486;12.074;2023-04-05T07:59:25;95849.66;;;3.89;100.00
33859;BME280;20156;47.486;12.074;2023-04-05T08:01:51;95854.78;;;3.89;100.00
33859;BME280;20156;47.486;12.074;2023-04-05T08:04:17;95856.06;;;4.20;100.00
33859;BME280;20156;47.486;12.074;2023-04-05T08:06:43;95810.53;;;4.03;100.00
33859;BME280;20156;47.486;12.074;2023-04-05T08:09:09;95801.16;;;4.02;100.00
33859;BME280;20156;47.486;12.074;2023-04-05T08:11:34;95835.22;;;4.32;100.00
33859;BME280;20156;47.486;12.074;2023-04-05T08:14:00;95834.06;;;4.52;100.00
33859;BME280;20156;47.486;12.074;2023-04-05T08:16:26;95775.03;;;4.59;100.00
33859;BME280;20156;47.486;12.074;2023-04-05T08:18:52;95775.28;;;4.73;100.00
33859;BME280;20156;47.486;12.074;2023-04-05T08:21:17;95773.53;;;4.74;100.00
33859;BME280;20156;47.486;12.074;2023-04-05T08:23:43;95757.34;;;4.98;100.00
33859;BME280;20156;47.486;12.074;2023-04-05T08:26:08;95726.91;;;4.59;100.00
33859;BME280;20156;47.486;12.074;2023-04-05T08:28:34;95719.59;;;4.20;100.00
33859;BME280;20156;47.486;12.074;2023-04-05T08:30:59;95700.97;;;4.27;100.00
33859;BME280;20156;47.486;12.074;2023-04-05T08:33:25;95703.72;;;5.01;100.00
33859;BME280;20156;47.486;12.074;2023-04-05T08:35:52;95652.75;;;4.37;100.00
33859;BME280;20156;47.486;12.074;2023-04-05T08:38:18;95648.19;;;4.65;100.00
33859;BME280;20156;47.486;12.074;2023-04-05T08:40:45;95602.91;;;4.12;100.00
33859;BME280;20156;47.486;12.074;2023-04-05T08:43:17;95602.63;;;4.65;100.00
33859;BME280;20156;47.486;12.074;2023-04-05T08:45:50;95501.13;;;4.34;100.00
33859;BME280;20156;47.486;12.074;2023-04-05T08:48:17;95514.56;;;4.78;100.00
33859;BME280;20156;47.486;12.074;2023-04-05T08:50:49;95537.59;;;5.44;100.00
33859;BME280;20156;47.486;12.074;2023-04-05T08:53:15;95519.22;;;5.48;100.00
33859;BME280;20156;47.486;12.074;2023-04-05T08:55:41;95540.34;;;4.94;100.00
33859;BME280;20156;47.486;12.074;2023-04-05T08:58:12;95571.44;;;4.93;100.00
33859;BME280;20156;47.486;12.074;2023-04-05T09:00:38;95536.09;;;5.66;100.00
33859;BME280;20156;47.486;12.074;2023-04-05T09:03:05;95520.38;;;4.80;100.00
33859;BME280;20156;47.486;12.074;2023-04-05T09:05:31;95544.69;;;5.02;100.00
33859;BME280;20156;47.486;12.074;2023-04-05T09:07:57;95507.53;;;5.92;100.00
33859;BME280;20156;47.486;12.074;2023-04-05T09:10:23;95552.13;;;6.56;100.00
33859;BME280;20156;47.486;12.074;2023-04-05T09:12:51;95566.53;;;7.28;100.00
33859;BME280;20156;47.486;12.074;2023-04-05T09:15:20;95476.72;;;6.76;100.00
33859;BME280;20156;47.486;12.074;2023-04-05T09:17:49;95385.41;;;5.44;100.00
33859;BME280;20156;47.486;12.074;2023-04-05T09:20:14;95399.00;;;5.30;100.00
33859;BME280;20156;47.486;12.074;2023-04-05T09:22:44;95416.03;;;5.48;100.00
33859;BME280;20156;47.486;12.074;2023-04-05T09:25:11;95399.72;;;5.94;100.00
33859;BME280;20156;47.486;12.074;2023-04-05T09:27:53;95384.97;;;5.72;100.00
33859;BME280;20156;47.486;12.074;2023-04-05T09:30:23;95384.84;;;5.65;100.00
33859;BME280;20156;47.486;12.074;2023-04-05T09:32:53;95405.84;;;5.54;100.00
33859;BME280;20156;47.486;12.074;2023-04-05T09:35:27;95384.59;;;6.37;100.00
33859;BME280;20156;47.486;12.074;2023-04-05T09:38:00;95240.94;;;5.98;100.00
33859;BME280;20156;47.486;12.074;2023-04-05T09:40:46;95227.31;;;5.82;100.00
33859;BME280;20156;47.486;12.074;2023-04-05T09:45:58;95223.19;;;6.48;100.00
33859;BME280;20156;47.486;12.074;2023-04-05T09:48:52;95247.72;;;7.47;100.00
33859;BME280;20156;47.486;12.074;2023-04-05T09:51:17;95127.44;;;6.34;100.00
33859;BME280;20156;47.486;12.074;2023-04-05T09:54:04;95138.78;;;6.70;100.00
33859;BME280;20156;47.486;12.074;2023-04-05T09:56:33;95121.03;;;6.81;100.00
33859;BME280;20156;47.486;12.074;2023-04-05T09:59:01;95086.25;;;6.84;100.00
33859;BME280;20156;47.486;12.074;2023-04-05T10:01:29;95096.94;;;6.59;100.00
33859;BME280;20156;47.486;12.074;2023-04-05T10:03:56;95059.75;;;6.75;100.00
33859;BME280;20156;47.486;12.074;2023-04-05T10:06:23;95043.84;;;7.42;100.00
33859;BME280;20156;47.486;12.074;2023-04-05T10:08:49;95038.13;;;7.81;100.00
33859;BME280;20156;47.486;12.074;2023-04-05T10:11:17;94948.19;;;7.62;100.00
33859;BME280;20156;47.486;12.074;2023-04-05T10:13:43;94929.34;;;7.06;100.00
33859;BME280;20156;47.486;12.074;2023-04-05T10:16:12;94916.28;;;6.64;100.00
33859;BME280;20156;47.486;12.074;2023-04-05T10:18:45;94937.81;;;8.03;100.00
33859;BME280;20156;47.486;12.074;2023-04-05T10:21:14;94903.97;;;7.57;100.00
33859;BME280;20156;47.486;12.074;2023-04-05T10:23:46;94902.88;;;7.86;100.00
33859;BME280;20156;47.486;12.074;2023-04-05T10:26:22;94893.91;;;8.43;100.00
33859;BME280;20156;47.486;12.074;2023-04-05T10:28:56;94913.03;;;7.74;100.00
33859;BME280;20156;47.486;12.074;2023-04-05T10:31:49;94928.50;;;6.99;100.00
33859;BME280;20156;47.486;12.074;2023-04-05T10:36:57;94855.53;;;7.92;100.00
33859;BME280;20156;47.486;12.074;2023-04-05T10:39:31;94876.06;;;7.52;100.00
33859;BME280;20156;47.486;12.074;2023-04-05T10:44:38;95003.91;;;7.02;93.05
33859;BME280;20156;47.486;12.074;2023-04-05T10:47:05;94912.25;;;8.41;100.00
33859;BME280;20156;47.486;12.074;2023-04-05T10:49:41;94974.97;;;8.24;96.98
33859;BME280;20156;47.486;12.074;2023-04-05T10:52:08;94987.47;;;8.07;98.69
33859;BME280;20156;47.486;12.074;2023-04-05T10:54:34;94862.19;;;9.07;100.00
33859;BME280;20156;47.486;12.074;2023-04-05T10:57:03;94931.16;;;9.61;100.00
33859;BME280;20156;47.486;12.074;2023-04-05T10:59:31;95088.78;;;8.73;87.60
33859;BME280;20156;47.486;12.074;2023-04-05T11:01:57;95146.84;;;9.40;81.86
33859;BME280;20156;47.486;12.074;2023-04-05T11:04:23;95070.78;;;9.65;93.61
33859;BME280;20156;47.486;12.074;2023-04-05T11:07:12;95142.75;;;8.91;89.04
33859;BME280;20156;47.486;12.074;2023-04-05T11:09:39;95170.63;;;8.41;88.80
33859;BME280;20156;47.486;12.074;2023-04-05T11:12:14;95229.22;;;8.70;81.79
33859;BME280;20156;47.486;12.074;2023-04-05T11:14:40;95175.03;;;9.49;93.63
33859;BME280;20156;47.486;12.074;2023-04-05T11:17:27;95216.22;;;9.04;90.76
33859;BME280;20156;47.486;12.074;2023-04-05T11:20:03;95271.78;;;7.83;80.98
33859;BME280;20156;47.486;12.074;2023-04-05T11:22:30;95258.22;;;7.81;87.18
33859;BME280;20156;47.486;12.074;2023-04-05T11:25:00;95268.13;;;8.21;85.29
33859;BME280;20156;47.486;12.074;2023-04-05T11:27:31;95275.69;;;8.71;85.92
33859;BME280;20156;47.486;12.074;2023-04-05T11:29:59;95303.19;;;8.66;81.25
33859;BME280;20156;47.486;12.074;2023-04-05T11:32:44;95307.84;;;9.46;83.01
33859;BME280;20156;47.486;12.074;2023-04-05T11:35:17;95322.09;;;8.88;77.07
33859;BME280;20156;47.486;12.074;2023-04-05T11:40:30;95308.53;;;8.58;83.17
33859;BME280;20156;47.486;12.074;2023-04-05T11:45:25;95317.84;;;8.31;82.87
33859;BME280;20156;47.486;12.074;2023-04-05T11:47:50;95311.50;;;8.33;83.49
33859;BME280;20156;47.486;12.074;2023-04-05T11:50:16;95320.44;;;8.31;80.42
33859;BME280;20156;47.486;12.074;2023-04-05T11:52:41;95322.81;;;8.47;80.47
33859;BME280;20156;47.486;12.074;2023-04-05T11:55:07;95308.44;;;9.42;87.95
33859;BME280;20156;47.486;12.074;2023-04-05T11:57:34;95329.34;;;9.33;75.93
33859;BME280;20156;47.486;12.074;2023-04-05T12:00:00;95335.44;;;9.13;74.54
33859;BME280;20156;47.486;12.074;2023-04-05T12:02:26;95351.06;;;8.91;72.33
33859;BME280;20156;47.486;12.074;2023-04-05T12:04:55;95326.38;;;9.37;81.33
33859;BME280;20156;47.486;12.074;2023-04-05T12:07:25;95337.97;;;9.06;75.00
33859;BME280;20156;47.486;12.074;2023-04-05T12:10:05;95352.00;;;9.12;70.49
33859;BME280;20156;47.486;12.074;2023-04-05T12:12:43;95359.41;;;8.87;69.91
33859;BME280;20156;47.486;12.074;2023-04-05T12:15:13;95347.66;;;9.60;74.46
33859;BME280;20156;47.486;12.074;2023-04-05T12:17:47;95348.69;;;9.24;71.34
33859;BME280;20156;47.486;12.074;2023-04-05T12:20:18;95347.94;;;9.02;70.74
33859;BME280;20156;47.486;12.074;2023-04-05T12:22:46;95339.75;;;8.99;77.35
33859;BME280;20156;47.486;12.074;2023-04-05T12:25:16;95332.97;;;9.04;78.92
33859;BME280;20156;47.486;12.074;2023-04-05T12:27:42;95336.56;;;9.03;74.31
33859;BME280;20156;47.486;12.074;2023-04-05T12:30:13;95308.63;;;10.01;83.75
33859;BME280;20156;47.486;12.074;2023-04-05T12:32:44;95329.28;;;9.20;75.18
33859;BME280;20156;47.486;12.074;2023-04-05T12:35:11;95338.16;;;9.80;73.31
33859;BME280;20156;47.486;12.074;2023-04-05T12:37:38;95339.56;;;9.83;70.96
33859;BME280;20156;47.486;12.074;2023-04-05T12:40:04;95343.81;;;9.08;69.35
33859;BME280;20156;47.486;12.074;2023-04-05T12:42:32;95333.19;;;9.99;73.54
33859;BME280;20156;47.486;12.074;2023-04-05T12:45:09;95335.34;;;9.82;71.48
33859;BME280;20156;47.486;12.074;2023-04-05T12:47:46;95348.50;;;9.74;65.69
33859;BME280;20156;47.486;12.074;2023-04-05T12:50:14;95343.03;;;9.55;67.18
33859;BME280;20156;47.486;12.074;2023-04-05T12:53:00;95341.88;;;9.58;72.05
33859;BME280;20156;47.486;12.074;2023-04-05T12:55:29;95342.09;;;9.70;71.98
33859;BME280;20156;47.486;12.074;2023-04-05T12:57:58;95340.94;;;8.96;72.74
33859;BME280;20156;47.486;12.074;2023-04-05T13:00:24;95346.63;;;8.57;68.23
33859;BME280;20156;47.486;12.074;2023-04-05T13:02:53;95343.09;;;8.93;67.09
33859;BME280;20156;47.486;12.074;2023-04-05T13:05:24;95330.41;;;10.00;69.76